Terminal Aerodrome Forecast
Issued by NWS Sioux Falls, SD

Home | Current Version | Previous Version | Graphics & Text | Print | Product List | Glossary On
Versions: 1 2 3 4 5 6 7 8 9 10 11 12 13
542
FTUS43 KFSD 271726
TAFFSD
TAF
KFSD 271726Z 2718/2818 10004KT P6SM FEW025
     FM272300 13004KT P6SM FEW150
     FM281200 VRB03KT 4SM BR SCT150
     FM281400 08004KT P6SM SCT250=

USA.gov is the U.S. government's official web portal to all federal, state and local government web resources and services.